Game Details

[ Leader Board ] [ Players ] [ Opponents ] [ Guilds ] [ Areas ]

Game Details for: beef

Game Progress

Quest Completed on Day
Mushroom Stew 8

Full Telemetry

Time Game Day Game Hour Game Minute Type Details Value Extra Zone X Y Credits Guild
5/7/2020 4:16:04 PM 15 12 57 Combat Lv 2 Worg 0 Win Wilderness1 30 14 154 None
5/7/2020 4:19:18 PM 15 16 24 Combat Lv 1 Chaak Warrior 0 Die InsectForest 14 21 264 None
5/7/2020 10:11:58 PM 15 8 58 Combat Lv 3 Slime Mold 0 Die Village1 10 7 159 None
5/7/2020 10:11:58 PM 15 8 58 Arena Loss 3 Village1 10 7 177 None
5/7/2020 10:15:33 PM 15 12 19 Combat Lv 3 Wasp 0 OpponentFlee Wilderness1 25 23 5 None
5/7/2020 10:16:30 PM 15 13 25 Combat Lv 2 Worg 0 Die Wilderness1 30 14 5 None
5/7/2020 10:17:03 PM 15 8 46 Equip Fine Kinetic Field 208 Village1 22 25 4 None
5/7/2020 10:18:18 PM 15 8 52 Combat Lv 3 Slime Mold 0 Win Village1 10 7 64 None
5/7/2020 10:18:18 PM 15 8 52 Arena Win 4 Village1 10 7 125 None
5/7/2020 10:19:40 PM 15 10 12 Arena Win 5 Village1 10 7 225 None
5/7/2020 10:19:40 PM 15 10 12 Combat Lv 4 Wasp 0 Win Village1 10 7 152 None
5/7/2020 10:21:37 PM 15 18 45 Combat Lv 2 Worg 0 Win Wilderness1 30 14 239 None
5/7/2020 10:22:41 PM 16 8 41 Daily beef 1279 Village1 10 27 288 None
5/7/2020 10:24:32 PM 16 11 28 Combat Lv 1 Chaak Warrior 0 Win InsectForest 6 12 313 None
5/7/2020 10:24:41 PM 16 11 28 Save 0 2 InsectForest 6 12 313 None
5/7/2020 10:25:52 PM 16 11 41 Combat Lv 1 Creeping Vines 0 Die InsectForest 15 27 363 None
5/7/2020 10:26:54 PM 16 11 45 Save 0 1 InsectForest 27 26 443 None
5/7/2020 10:28:24 PM 16 11 53 Combat Lv 1 Chaak Warrior 0 Die InsectForest 24 28 513 None
5/7/2020 10:28:49 PM 16 11 48 Save 0 0 InsectForest 22 21 513 None
5/7/2020 10:31:51 PM 16 12 2 Combat Lv 1 Chaak Warrior 0 Die InsectForest 25 5 513 None
5/7/2020 10:33:03 PM 16 11 54 Combat Lv 3 Worg 0 Win InsectForest 27 25 513 None
5/7/2020 10:34:17 PM 16 11 57 Combat Lv 1 Chaak Warrior 0 Win InsectForest 28 10 544 None
5/7/2020 10:34:51 PM 16 11 59 Combat Lv 1 Chaak Warrior 0 Die InsectForest 17 10 544 None